sensor_id;sensor_type;location;lat;lon;timestamp;pressure;altitude;pressure_sealevel;temperature;humidity
16525;BME280;8375;33.594;-117.718;2023-03-13T00:01:47;100691.78;;;18.81;74.70
16525;BME280;8375;33.594;-117.718;2023-03-13T00:04:17;100699.47;;;18.66;74.56
16525;BME280;8375;33.594;-117.718;2023-03-13T00:06:45;100704.06;;;18.64;75.23
16525;BME280;8375;33.594;-117.718;2023-03-13T00:09:16;100712.75;;;18.65;74.54
16525;BME280;8375;33.594;-117.718;2023-03-13T00:11:45;100701.44;;;18.64;75.23
16525;BME280;8375;33.594;-117.718;2023-03-13T00:14:14;100690.69;;;18.49;75.05
16525;BME280;8375;33.594;-117.718;2023-03-13T00:16:43;100683.34;;;18.26;75.04
16525;BME280;8375;33.594;-117.718;2023-03-13T00:19:12;100673.44;;;18.12;76.46
16525;BME280;8375;33.594;-117.718;2023-03-13T00:21:40;100684.38;;;18.07;77.18
16525;BME280;8375;33.594;-117.718;2023-03-13T00:24:10;100682.44;;;18.09;76.13
16525;BME280;8375;33.594;-117.718;2023-03-13T00:26:41;100690.03;;;17.94;77.54
16525;BME280;8375;33.594;-117.718;2023-03-13T00:29:09;100682.28;;;17.93;76.97
16525;BME280;8375;33.594;-117.718;2023-03-13T00:31:38;100684.78;;;17.94;77.10
16525;BME280;8375;33.594;-117.718;2023-03-13T00:34:07;100683.44;;;17.90;77.84
16525;BME280;8375;33.594;-117.718;2023-03-13T00:36:37;100687.19;;;17.87;78.09
16525;BME280;8375;33.594;-117.718;2023-03-13T00:39:06;100683.75;;;17.87;78.37
16525;BME280;8375;33.594;-117.718;2023-03-13T00:41:35;100683.03;;;17.77;78.77
16525;BME280;8375;33.594;-117.718;2023-03-13T00:44:06;100682.66;;;17.71;78.74
16525;BME280;8375;33.594;-117.718;2023-03-13T00:46:35;100680.03;;;17.71;78.09
16525;BME280;8375;33.594;-117.718;2023-03-13T00:49:04;100675.91;;;17.69;78.78
16525;BME280;8375;33.594;-117.718;2023-03-13T00:51:33;100677.34;;;17.63;79.33
16525;BME280;8375;33.594;-117.718;2023-03-13T00:54:01;100674.06;;;17.61;79.39
16525;BME280;8375;33.594;-117.718;2023-03-13T00:56:30;100677.66;;;17.60;79.71
16525;BME280;8375;33.594;-117.718;2023-03-13T00:58:59;100681.88;;;17.53;79.37
16525;BME280;8375;33.594;-117.718;2023-03-13T01:01:31;100689.44;;;17.38;79.66
16525;BME280;8375;33.594;-117.718;2023-03-13T01:04:01;100691.47;;;17.26;80.39
16525;BME280;8375;33.594;-117.718;2023-03-13T01:06:32;100693.28;;;17.07;81.71
16525;BME280;8375;33.594;-117.718;2023-03-13T01:09:01;100689.72;;;16.98;82.65
16525;BME280;8375;33.594;-117.718;2023-03-13T01:11:31;100688.56;;;16.83;83.93
16525;BME280;8375;33.594;-117.718;2023-03-13T01:14:02;100685.16;;;16.72;84.11
16525;BME280;8375;33.594;-117.718;2023-03-13T01:16:34;100682.31;;;16.66;84.45
16525;BME280;8375;33.594;-117.718;2023-03-13T01:19:05;100685.81;;;16.56;85.27
16525;BME280;8375;33.594;-117.718;2023-03-13T01:21:34;100683.59;;;16.52;86.66
16525;BME280;8375;33.594;-117.718;2023-03-13T01:24:03;100686.81;;;16.46;87.41
16525;BME280;8375;33.594;-117.718;2023-03-13T01:26:32;100686.72;;;16.37;86.70
16525;BME280;8375;33.594;-117.718;2023-03-13T01:29:01;100684.13;;;16.27;86.39
16525;BME280;8375;33.594;-117.718;2023-03-13T01:31:32;100685.84;;;16.09;86.89
16525;BME280;8375;33.594;-117.718;2023-03-13T01:34:02;100682.16;;;15.92;88.75
16525;BME280;8375;33.594;-117.718;2023-03-13T01:36:32;100681.88;;;15.75;89.51
16525;BME280;8375;33.594;-117.718;2023-03-13T01:39:02;100684.09;;;15.60;90.82
16525;BME280;8375;33.594;-117.718;2023-03-13T01:41:32;100684.25;;;15.49;91.64
16525;BME280;8375;33.594;-117.718;2023-03-13T01:44:01;100679.41;;;15.34;92.15
16525;BME280;8375;33.594;-117.718;2023-03-13T01:46:30;100688.63;;;15.19;92.82
16525;BME280;8375;33.594;-117.718;2023-03-13T01:49:03;100687.25;;;15.15;95.20
16525;BME280;8375;33.594;-117.718;2023-03-13T01:51:34;100683.13;;;15.12;94.20
16525;BME280;8375;33.594;-117.718;2023-03-13T01:54:07;100686.00;;;14.99;95.06
16525;BME280;8375;33.594;-117.718;2023-03-13T01:56:40;100695.75;;;14.97;96.96
16525;BME280;8375;33.594;-117.718;2023-03-13T01:59:12;100702.22;;;14.93;96.67
16525;BME280;8375;33.594;-117.718;2023-03-13T02:01:42;100705.78;;;14.92;98.03
16525;BME280;8375;33.594;-117.718;2023-03-13T02:04:15;100716.25;;;14.82;96.55
16525;BME280;8375;33.594;-117.718;2023-03-13T02:06:46;100720.97;;;14.67;97.59
16525;BME280;8375;33.594;-117.718;2023-03-13T02:09:17;100721.75;;;14.58;98.41
16525;BME280;8375;33.594;-117.718;2023-03-13T02:11:48;100721.47;;;14.61;99.84
16525;BME280;8375;33.594;-117.718;2023-03-13T02:14:22;100716.66;;;14.56;100.00
16525;BME280;8375;33.594;-117.718;2023-03-13T02:16:54;100709.22;;;14.51;99.92
16525;BME280;8375;33.594;-117.718;2023-03-13T02:19:29;100709.63;;;14.47;100.00
16525;BME280;8375;33.594;-117.718;2023-03-13T02:22:07;100708.06;;;14.44;100.00
16525;BME280;8375;33.594;-117.718;2023-03-13T02:24:45;100699.53;;;14.42;100.00
16525;BME280;8375;33.594;-117.718;2023-03-13T02:27:18;100699.13;;;14.37;100.00
16525;BME280;8375;33.594;-117.718;2023-03-13T02:29:47;100702.84;;;14.34;100.00
16525;BME280;8375;33.594;-117.718;2023-03-13T02:32:16;100702.50;;;14.28;100.00
16525;BME280;8375;33.594;-117.718;2023-03-13T02:34:48;100696.59;;;14.26;100.00
16525;BME280;8375;33.594;-117.718;2023-03-13T02:37:18;100700.56;;;14.20;100.00
16525;BME280;8375;33.594;-117.718;2023-03-13T02:39:49;100706.28;;;14.14;100.00
16525;BME280;8375;33.594;-117.718;2023-03-13T02:42:21;100714.19;;;14.02;100.00
16525;BME280;8375;33.594;-117.718;2023-03-13T02:44:50;100727.25;;;14.02;100.00
16525;BME280;8375;33.594;-117.718;2023-03-13T02:47:19;100724.38;;;14.05;100.00
16525;BME280;8375;33.594;-117.718;2023-03-13T02:49:48;100728.91;;;14.03;100.00
16525;BME280;8375;33.594;-117.718;2023-03-13T02:52:19;100736.59;;;14.05;100.00
16525;BME280;8375;33.594;-117.718;2023-03-13T02:54:52;100740.94;;;13.94;100.00
16525;BME280;8375;33.594;-117.718;2023-03-13T02:57:24;100741.06;;;13.93;100.00
16525;BME280;8375;33.594;-117.718;2023-03-13T02:59:53;100743.94;;;13.90;100.00
16525;BME280;8375;33.594;-117.718;2023-03-13T03:02:22;100751.31;;;13.85;100.00
16525;BME280;8375;33.594;-117.718;2023-03-13T03:04:51;100753.06;;;13.84;100.00
16525;BME280;8375;33.594;-117.718;2023-03-13T03:07:19;100755.38;;;13.77;100.00
16525;BME280;8375;33.594;-117.718;2023-03-13T03:09:48;100753.25;;;13.71;100.00
16525;BME280;8375;33.594;-117.718;2023-03-13T03:12:16;100761.91;;;13.72;100.00
16525;BME280;8375;33.594;-117.718;2023-03-13T03:14:47;100773.28;;;13.71;100.00
16525;BME280;8375;33.594;-117.718;2023-03-13T03:17:15;100776.84;;;13.70;100.00
16525;BME280;8375;33.594;-117.718;2023-03-13T03:19:44;100769.06;;;13.58;100.00
16525;BME280;8375;33.594;-117.718;2023-03-13T03:22:12;100778.78;;;13.56;100.00
16525;BME280;8375;33.594;-117.718;2023-03-13T03:24:41;100780.69;;;13.54;100.00
16525;BME280;8375;33.594;-117.718;2023-03-13T03:27:10;100786.88;;;13.53;100.00
16525;BME280;8375;33.594;-117.718;2023-03-13T03:29:38;100789.84;;;13.48;100.00
16525;BME280;8375;33.594;-117.718;2023-03-13T03:32:09;100795.88;;;13.49;100.00
16525;BME280;8375;33.594;-117.718;2023-03-13T03:34:38;100792.31;;;13.50;100.00
16525;BME280;8375;33.594;-117.718;2023-03-13T03:37:06;100800.03;;;13.52;100.00
16525;BME280;8375;33.594;-117.718;2023-03-13T03:39:35;100802.50;;;13.53;100.00
16525;BME280;8375;33.594;-117.718;2023-03-13T03:42:04;100804.41;;;13.51;100.00
16525;BME280;8375;33.594;-117.718;2023-03-13T03:44:34;100803.00;;;13.47;100.00
16525;BME280;8375;33.594;-117.718;2023-03-13T03:47:03;100804.91;;;13.45;100.00
16525;BME280;8375;33.594;-117.718;2023-03-13T03:49:33;100809.53;;;13.41;100.00
16525;BME280;8375;33.594;-117.718;2023-03-13T03:52:02;100811.41;;;13.39;100.00
16525;BME280;8375;33.594;-117.718;2023-03-13T03:54:31;100819.03;;;13.31;100.00
16525;BME280;8375;33.594;-117.718;2023-03-13T03:57:00;100818.66;;;13.24;100.00
16525;BME280;8375;33.594;-117.718;2023-03-13T03:59:29;100820.31;;;13.25;100.00
16525;BME280;8375;33.594;-117.718;2023-03-13T04:01:57;100820.09;;;13.17;100.00
16525;BME280;8375;33.594;-117.718;2023-03-13T04:04:26;100826.13;;;13.17;100.00
16525;BME280;8375;33.594;-117.718;2023-03-13T04:06:57;100829.19;;;13.11;100.00
16525;BME280;8375;33.594;-117.718;2023-03-13T04:09:25;100823.97;;;13.11;100.00
16525;BME280;8375;33.594;-117.718;2023-03-13T04:11:54;100829.91;;;13.13;100.00
16525;BME280;8375;33.594;-117.718;2023-03-13T04:14:23;100836.31;;;13.09;100.00
16525;BME280;8375;33.594;-117.718;2023-03-13T04:16:51;100840.00;;;13.06;100.00
16525;BME280;8375;33.594;-117.718;2023-03-13T04:19:20;100846.16;;;13.05;100.00
16525;BME280;8375;33.594;-117.718;2023-03-13T04:21:49;100850.53;;;13.05;100.00
16525;BME280;8375;33.594;-117.718;2023-03-13T04:24:19;100858.94;;;13.09;100.00
16525;BME280;8375;33.594;-117.718;2023-03-13T04:26:48;100869.25;;;13.10;100.00
16525;BME280;8375;33.594;-117.718;2023-03-13T04:29:16;100867.72;;;13.08;100.00
16525;BME280;8375;33.594;-117.718;2023-03-13T04:31:45;100870.91;;;13.00;100.00
16525;BME280;8375;33.594;-117.718;2023-03-13T04:34:13;100868.75;;;12.94;100.00
16525;BME280;8375;33.594;-117.718;2023-03-13T04:36:42;100886.66;;;12.87;100.00
16525;BME280;8375;33.594;-117.718;2023-03-13T04:39:11;100879.06;;;12.84;100.00
16525;BME280;8375;33.594;-117.718;2023-03-13T04:41:41;100876.69;;;12.81;100.00
16525;BME280;8375;33.594;-117.718;2023-03-13T04:44:10;100872.16;;;12.60;100.00
16525;BME280;8375;33.594;-117.718;2023-03-13T04:46:38;100878.28;;;12.47;100.00
16525;BME280;8375;33.594;-117.718;2023-03-13T04:49:07;100880.53;;;12.52;100.00
16525;BME280;8375;33.594;-117.718;2023-03-13T04:51:36;100890.13;;;12.52;100.00
16525;BME280;8375;33.594;-117.718;2023-03-13T04:54:05;100883.84;;;12.54;100.00
16525;BME280;8375;33.594;-117.718;2023-03-13T04:56:34;100880.91;;;12.59;100.00
16525;BME280;8375;33.594;-117.718;2023-03-13T04:59:04;100889.50;;;12.48;100.00
16525;BME280;8375;33.594;-117.718;2023-03-13T05:01:33;100887.03;;;12.46;100.00
16525;BME280;8375;33.594;-117.718;2023-03-13T05:04:02;100876.59;;;12.35;100.00
16525;BME280;8375;33.594;-117.718;2023-03-13T05:06:30;100888.19;;;12.42;100.00
16525;BME280;8375;33.594;-117.718;2023-03-13T05:08:59;100883.50;;;12.47;100.00
16525;BME280;8375;33.594;-117.718;2023-03-13T05:11:28;100879.22;;;12.46;100.00
16525;BME280;8375;33.594;-117.718;2023-03-13T05:13:57;100887.06;;;12.58;100.00
16525;BME280;8375;33.594;-117.718;2023-03-13T05:16:27;100876.06;;;12.66;100.00
16525;BME280;8375;33.594;-117.718;2023-03-13T05:18:56;100877.50;;;12.70;100.00
16525;BME280;8375;33.594;-117.718;2023-03-13T05:21:25;100872.66;;;12.76;100.00
16525;BME280;8375;33.594;-117.718;2023-03-13T05:23:53;100876.78;;;12.79;100.00
16525;BME280;8375;33.594;-117.718;2023-03-13T05:26:23;100870.78;;;12.79;100.00
16525;BME280;8375;33.594;-117.718;2023-03-13T05:28:51;100877.50;;;12.81;100.00
16525;BME280;8375;33.594;-117.718;2023-03-13T05:31:20;100871.94;;;12.74;100.00
16525;BME280;8375;33.594;-117.718;2023-03-13T05:33:50;100873.00;;;12.72;100.00
16525;BME280;8375;33.594;-117.718;2023-03-13T05:36:19;100865.28;;;12.59;100.00
16525;BME280;8375;33.594;-117.718;2023-03-13T05:38:47;100871.66;;;12.55;100.00
16525;BME280;8375;33.594;-117.718;2023-03-13T05:41:16;100873.66;;;12.51;100.00
16525;BME280;8375;33.594;-117.718;2023-03-13T05:43:44;100869.63;;;12.47;100.00
16525;BME280;8375;33.594;-117.718;2023-03-13T05:46:13;100866.91;;;12.49;100.00
16525;BME280;8375;33.594;-117.718;2023-03-13T05:48:42;100858.38;;;12.46;100.00
16525;BME280;8375;33.594;-117.718;2023-03-13T05:51:12;100871.88;;;12.40;100.00
16525;BME280;8375;33.594;-117.718;2023-03-13T05:53:41;100868.16;;;12.31;100.00
16525;BME280;8375;33.594;-117.718;2023-03-13T05:56:10;100879.63;;;12.29;100.00
16525;BME280;8375;33.594;-117.718;2023-03-13T05:58:38;100878.41;;;12.22;100.00
16525;BME280;8375;33.594;-117.718;2023-03-13T06:01:08;100875.66;;;12.12;100.00
16525;BME280;8375;33.594;-117.718;2023-03-13T06:03:37;100872.22;;;12.11;100.00
16525;BME280;8375;33.594;-117.718;2023-03-13T06:06:06;100867.97;;;12.10;100.00
16525;BME280;8375;33.594;-117.718;2023-03-13T06:08:36;100877.34;;;12.24;100.00
16525;BME280;8375;33.594;-117.718;2023-03-13T06:11:05;100871.47;;;12.33;100.00
16525;BME280;8375;33.594;-117.718;2023-03-13T06:13:33;100868.53;;;12.38;100.00
16525;BME280;8375;33.594;-117.718;2023-03-13T06:16:02;100879.78;;;12.39;100.00
16525;BME280;8375;33.594;-117.718;2023-03-13T06:18:31;100871.59;;;12.32;100.00
16525;BME280;8375;33.594;-117.718;2023-03-13T06:21:01;100884.72;;;12.30;100.00
16525;BME280;8375;33.594;-117.718;2023-03-13T06:23:29;100881.53;;;12.27;100.00
16525;BME280;8375;33.594;-117.718;2023-03-13T06:26:00;100881.53;;;12.27;100.00
16525;BME280;8375;33.594;-117.718;2023-03-13T06:28:29;100875.00;;;12.32;100.00
16525;BME280;8375;33.594;-117.718;2023-03-13T06:31:01;100892.66;;;12.29;100.00
16525;BME280;8375;33.594;-117.718;2023-03-13T06:33:30;100893.38;;;12.31;100.00
16525;BME280;8375;33.594;-117.718;2023-03-13T06:36:00;100897.47;;;12.22;100.00
16525;BME280;8375;33.594;-117.718;2023-03-13T06:38:29;100895.81;;;12.21;100.00
16525;BME280;8375;33.594;-117.718;2023-03-13T06:41:00;100902.84;;;12.32;100.00
16525;BME280;8375;33.594;-117.718;2023-03-13T06:43:29;100901.28;;;12.29;100.00
16525;BME280;8375;33.594;-117.718;2023-03-13T06:46:02;100893.25;;;12.32;100.00
16525;BME280;8375;33.594;-117.718;2023-03-13T06:48:32;100890.63;;;12.32;100.00
16525;BME280;8375;33.594;-117.718;2023-03-13T06:51:00;100891.22;;;12.25;100.00
16525;BME280;8375;33.594;-117.718;2023-03-13T06:53:29;100892.75;;;12.27;100.00
16525;BME280;8375;33.594;-117.718;2023-03-13T06:56:02;100891.09;;;12.26;100.00
16525;BME280;8375;33.594;-117.718;2023-03-13T06:58:30;100893.38;;;12.31;100.00
16525;BME280;8375;33.594;-117.718;2023-03-13T07:00:59;100896.13;;;12.41;100.00
16525;BME280;8375;33.594;-117.718;2023-03-13T07:03:28;100884.44;;;12.46;100.00
16525;BME280;8375;33.594;-117.718;2023-03-13T07:05:56;100892.09;;;12.48;100.00
16525;BME280;8375;33.594;-117.718;2023-03-13T07:08:25;100886.91;;;12.48;100.00
16525;BME280;8375;33.594;-117.718;2023-03-13T07:10:58;100880.75;;;12.49;100.00
16525;BME280;8375;33.594;-117.718;2023-03-13T07:13:29;100879.00;;;12.50;100.00
16525;BME280;8375;33.594;-117.718;2023-03-13T07:15:59;100871.19;;;12.50;100.00
16525;BME280;8375;33.594;-117.718;2023-03-13T07:18:30;100871.19;;;12.50;100.00
16525;BME280;8375;33.594;-117.718;2023-03-13T07:20:59;100867.63;;;12.51;100.00
16525;BME280;8375;33.594;-117.718;2023-03-13T07:23:30;100871.06;;;12.51;100.00
16525;BME280;8375;33.594;-117.718;2023-03-13T07:26:01;100868.81;;;12.46;100.00
16525;BME280;8375;33.594;-117.718;2023-03-13T07:28:32;100864.41;;;12.47;100.00
16525;BME280;8375;33.594;-117.718;2023-03-13T07:31:05;100862.25;;;12.41;100.00
16525;BME280;8375;33.594;-117.718;2023-03-13T07:33:34;100857.28;;;12.38;100.00
16525;BME280;8375;33.594;-117.718;2023-03-13T07:36:04;100861.53;;;12.39;100.00
16525;BME280;8375;33.594;-117.718;2023-03-13T07:38:33;100867.97;;;12.46;100.00
16525;BME280;8375;33.594;-117.718;2023-03-13T07:41:02;100871.41;;;12.46;100.00
16525;BME280;8375;33.594;-117.718;2023-03-13T07:43:33;100867.16;;;12.45;100.00
16525;BME280;8375;33.594;-117.718;2023-03-13T07:46:03;100868.91;;;12.45;100.00
16525;BME280;8375;33.594;-117.718;2023-03-13T07:48:33;100874.25;;;12.43;100.00
16525;BME280;8375;33.594;-117.718;2023-03-13T07:51:02;100874.13;;;12.45;100.00
16525;BME280;8375;33.594;-117.718;2023-03-13T07:53:31;100873.28;;;12.44;100.00
16525;BME280;8375;33.594;-117.718;2023-03-13T07:56:01;100864.31;;;12.49;100.00
16525;BME280;8375;33.594;-117.718;2023-03-13T07:58:33;100862.66;;;12.47;100.00
16525;BME280;8375;33.594;-117.718;2023-03-13T08:01:07;100859.56;;;12.42;100.00
16525;BME280;8375;33.594;-117.718;2023-03-13T08:03:36;100864.16;;;12.39;100.00
16525;BME280;8375;33.594;-117.718;2023-03-13T08:06:06;100864.06;;;12.40;100.00
16525;BME280;8375;33.594;-117.718;2023-03-13T08:08:36;100858.22;;;12.37;100.00
16525;BME280;8375;33.594;-117.718;2023-03-13T08:11:06;100859.66;;;12.41;100.00
16525;BME280;8375;33.594;-117.718;2023-03-13T08:13:36;100858.97;;;12.50;100.00
16525;BME280;8375;33.594;-117.718;2023-03-13T08:16:07;100857.94;;;12.53;100.00
16525;BME280;8375;33.594;-117.718;2023-03-13T08:18:37;100847.63;;;12.51;100.00
16525;BME280;8375;33.594;-117.718;2023-03-13T08:21:07;100848.56;;;12.50;100.00
16525;BME280;8375;33.594;-117.718;2023-03-13T08:23:36;100851.28;;;12.49;100.00
16525;BME280;8375;33.594;-117.718;2023-03-13T08:26:07;100856.00;;;12.43;100.00
16525;BME280;8375;33.594;-117.718;2023-03-13T08:28:38;100857.66;;;12.44;100.00
16525;BME280;8375;33.594;-117.718;2023-03-13T08:31:08;100857.06;;;12.41;100.00
16525;BME280;8375;33.594;-117.718;2023-03-13T08:33:38;100863.94;;;12.42;100.00
16525;BME280;8375;33.594;-117.718;2023-03-13T08:36:15;100868.09;;;12.44;100.00
16525;BME280;8375;33.594;-117.718;2023-03-13T08:38:44;100862.97;;;12.43;100.00
16525;BME280;8375;33.594;-117.718;2023-03-13T08:41:15;100859.88;;;12.38;100.00
16525;BME280;8375;33.594;-117.718;2023-03-13T08:43:46;100860.59;;;12.40;100.00
16525;BME280;8375;33.594;-117.718;2023-03-13T08:46:15;100856.97;;;12.42;100.00
16525;BME280;8375;33.594;-117.718;2023-03-13T08:48:43;100858.13;;;12.38;100.00
16525;BME280;8375;33.594;-117.718;2023-03-13T08:51:13;100849.38;;;12.39;100.00
16525;BME280;8375;33.594;-117.718;2023-03-13T08:53:43;100859.34;;;12.45;100.00
16525;BME280;8375;33.594;-117.718;2023-03-13T08:56:12;100852.47;;;12.44;100.00
16525;BME280;8375;33.594;-117.718;2023-03-13T08:58:42;100847.13;;;12.46;100.00
16525;BME280;8375;33.594;-117.718;2023-03-13T09:01:13;100839.09;;;12.49;100.00
16525;BME280;8375;33.594;-117.718;2023-03-13T09:03:42;100845.84;;;12.52;100.00
16525;BME280;8375;33.594;-117.718;2023-03-13T09:06:11;100847.63;;;12.51;100.00
16525;BME280;8375;33.594;-117.718;2023-03-13T09:08:40;100843.25;;;12.52;100.00
16525;BME280;8375;33.594;-117.718;2023-03-13T09:11:11;100844.06;;;12.52;100.00
16525;BME280;8375;33.594;-117.718;2023-03-13T09:13:41;100849.28;;;12.52;100.00
16525;BME280;8375;33.594;-117.718;2023-03-13T09:16:13;100855.31;;;12.53;100.00
16525;BME280;8375;33.594;-117.718;2023-03-13T09:18:43;100851.66;;;12.55;100.00
16525;BME280;8375;33.594;-117.718;2023-03-13T09:21:13;100859.47;;;12.55;100.00
16525;BME280;8375;33.594;-117.718;2023-03-13T09:23:42;100861.47;;;12.52;100.00
16525;BME280;8375;33.594;-117.718;2023-03-13T09:26:12;100859.09;;;12.49;100.00
16525;BME280;8375;33.594;-117.718;2023-03-13T09:28:41;100851.53;;;12.45;100.00
16525;BME280;8375;33.594;-117.718;2023-03-13T09:31:12;100855.06;;;12.44;100.00
16525;BME280;8375;33.594;-117.718;2023-03-13T09:33:42;100857.91;;;12.41;100.00
16525;BME280;8375;33.594;-117.718;2023-03-13T09:36:11;100849.16;;;12.42;100.00
16525;BME280;8375;33.594;-117.718;2023-03-13T09:38:40;100845.38;;;12.46;100.00
16525;BME280;8375;33.594;-117.718;2023-03-13T09:41:21;100853.19;;;12.46;100.00
16525;BME280;8375;33.594;-117.718;2023-03-13T09:43:55;100843.34;;;12.50;100.00
16525;BME280;8375;33.594;-117.718;2023-03-13T09:46:33;100849.50;;;12.49;100.00
16525;BME280;8375;33.594;-117.718;2023-03-13T09:49:08;100846.09;;;12.49;100.00
16525;BME280;8375;33.594;-117.718;2023-03-13T09:51:40;100843.25;;;12.52;100.00
16525;BME280;8375;33.594;-117.718;2023-03-13T09:54:21;100841.69;;;12.49;100.00
16525;BME280;8375;33.594;-117.718;2023-03-13T09:56:54;100838.59;;;12.44;100.00
16525;BME280;8375;33.594;-117.718;2023-03-13T09:59:28;100846.19;;;12.47;100.00
16525;BME280;8375;33.594;-117.718;2023-03-13T10:02:06;100841.81;;;12.47;100.00
16525;BME280;8375;33.594;-117.718;2023-03-13T10:04:44;100832.59;;;12.43;100.00
16525;BME280;8375;33.594;-117.718;2023-03-13T10:07:15;100836.13;;;12.42;100.00
16525;BME280;8375;33.594;-117.718;2023-03-13T10:09:46;100834.34;;;12.43;100.00
16525;BME280;8375;33.594;-117.718;2023-03-13T10:12:18;100838.00;;;12.40;100.00
16525;BME280;8375;33.594;-117.718;2023-03-13T10:14:56;100832.09;;;12.38;100.00
16525;BME280;8375;33.594;-117.718;2023-03-13T10:17:32;100819.06;;;12.38;100.00
16525;BME280;8375;33.594;-117.718;2023-03-13T10:20:13;100810.56;;;12.36;100.00
16525;BME280;8375;33.594;-117.718;2023-03-13T10:22:45;100801.31;;;12.32;100.00
16525;BME280;8375;33.594;-117.718;2023-03-13T10:25:26;100803.78;;;12.33;100.00
16525;BME280;8375;33.594;-117.718;2023-03-13T10:27:56;100803.19;;;12.30;100.00
16525;BME280;8375;33.594;-117.718;2023-03-13T10:30:27;100796.66;;;12.24;100.00
16525;BME280;8375;33.594;-117.718;2023-03-13T10:33:21;100797.84;;;12.20;100.00
16525;BME280;8375;33.594;-117.718;2023-03-13T10:36:11;100801.59;;;12.16;100.00
16525;BME280;8375;33.594;-117.718;2023-03-13T10:38:48;100797.34;;;12.15;100.00
16525;BME280;8375;33.594;-117.718;2023-03-13T10:41:25;100790.59;;;12.12;100.00
16525;BME280;8375;33.594;-117.718;2023-03-13T10:43:59;100786.44;;;12.10;100.00
16525;BME280;8375;33.594;-117.718;2023-03-13T10:46:29;100785.13;;;12.04;100.00
16525;BME280;8375;33.594;-117.718;2023-03-13T10:49:03;100784.44;;;12.02;100.00
16525;BME280;8375;33.594;-117.718;2023-03-13T10:51:36;100778.69;;;11.97;100.00
16525;BME280;8375;33.594;-117.718;2023-03-13T10:54:18;100779.41;;;11.99;100.00
16525;BME280;8375;33.594;-117.718;2023-03-13T10:56:49;100776.72;;;12.00;100.00
16525;BME280;8375;33.594;-117.718;2023-03-13T10:59:22;100775.44;;;12.06;100.00
16525;BME280;8375;33.594;-117.718;2023-03-13T11:01:53;100777.81;;;12.09;100.00
16525;BME280;8375;33.594;-117.718;2023-03-13T11:04:31;100767.41;;;12.09;100.00
16525;BME280;8375;33.594;-117.718;2023-03-13T11:07:03;100762.31;;;12.08;100.00
16525;BME280;8375;33.594;-117.718;2023-03-13T11:09:32;100765.84;;;12.07;100.00
16525;BME280;8375;33.594;-117.718;2023-03-13T11:12:05;100761.00;;;12.02;100.00
16525;BME280;8375;33.594;-117.718;2023-03-13T11:14:37;100757.47;;;12.03;100.00
16525;BME280;8375;33.594;-117.718;2023-03-13T11:17:14;100758.06;;;12.07;100.00
16525;BME280;8375;33.594;-117.718;2023-03-13T11:20:07;100759.47;;;12.11;100.00
16525;BME280;8375;33.594;-117.718;2023-03-13T11:23:04;100769.06;;;12.10;100.00
16525;BME280;8375;33.594;-117.718;2023-03-13T11:25:38;100758.91;;;12.07;100.00
16525;BME280;8375;33.594;-117.718;2023-03-13T11:28:19;100764.69;;;12.11;100.00
16525;BME280;8375;33.594;-117.718;2023-03-13T11:31:05;100762.94;;;12.11;100.00
16525;BME280;8375;33.594;-117.718;2023-03-13T11:33:43;100760.44;;;12.10;100.00
16525;BME280;8375;33.594;-117.718;2023-03-13T11:36:22;100757.72;;;12.11;100.00
16525;BME280;8375;33.594;-117.718;2023-03-13T11:38:59;100770.69;;;12.00;100.00
16525;BME280;8375;33.594;-117.718;2023-03-13T11:41:41;100771.84;;;11.96;100.00
16525;BME280;8375;33.594;-117.718;2023-03-13T11:44:22;100762.91;;;12.00;100.00
16525;BME280;8375;33.594;-117.718;2023-03-13T11:47:09;100773.31;;;12.00;100.00
16525;BME280;8375;33.594;-117.718;2023-03-13T11:49:59;100762.94;;;12.11;100.00
16525;BME280;8375;33.594;-117.718;2023-03-13T11:52:51;100753.72;;;12.18;100.00
16525;BME280;8375;33.594;-117.718;2023-03-13T11:55:32;100749.31;;;12.19;100.00
16525;BME280;8375;33.594;-117.718;2023-03-13T11:58:17;100751.56;;;12.12;100.00
16525;BME280;8375;33.594;-117.718;2023-03-13T12:00:54;100743.75;;;12.12;100.00
16525;BME280;8375;33.594;-117.718;2023-03-13T12:03:33;100750.41;;;12.16;100.00
16525;BME280;8375;33.594;-117.718;2023-03-13T12:06:04;100745.91;;;12.18;100.00
16525;BME280;8375;33.594;-117.718;2023-03-13T12:08:38;100743.06;;;12.22;100.00
16525;BME280;8375;33.594;-117.718;2023-03-13T12:11:14;100753.50;;;12.22;100.00
16525;BME280;8375;33.594;-117.718;2023-03-13T12:13:49;100751.13;;;12.18;100.00
16525;BME280;8375;33.594;-117.718;2023-03-13T12:16:27;100760.34;;;12.23;100.00
16525;BME280;8375;33.594;-117.718;2023-03-13T12:19:00;100753.50;;;12.22;100.00
16525;BME280;8375;33.594;-117.718;2023-03-13T12:21:32;100755.38;;;12.20;100.00
16525;BME280;8375;33.594;-117.718;2023-03-13T12:24:10;100753.09;;;12.15;100.00
16525;BME280;8375;33.594;-117.718;2023-03-13T12:26:45;100743.63;;;12.14;100.00
16525;BME280;8375;33.594;-117.718;2023-03-13T12:29:23;100741.16;;;12.12;100.00
16525;BME280;8375;33.594;-117.718;2023-03-13T12:31:58;100737.13;;;12.08;100.00
16525;BME280;8375;33.594;-117.718;2023-03-13T12:34:37;100734.84;;;12.03;100.00
16525;BME280;8375;33.594;-117.718;2023-03-13T12:37:11;100736.88;;;12.00;100.00
16525;BME280;8375;33.594;-117.718;2023-03-13T12:39:51;100741.72;;;12.05;100.00
16525;BME280;8375;33.594;-117.718;2023-03-13T12:42:35;100744.00;;;12.09;100.00
16525;BME280;8375;33.594;-117.718;2023-03-13T12:45:15;100733.47;;;12.11;100.00